createdAt,value
2017-08-21T00:00:16.442Z,14.30
2017-08-21T00:01:13.711Z,14.29
2017-08-21T00:02:11.213Z,14.29
2017-08-21T00:03:08.496Z,14.28
2017-08-21T00:04:05.774Z,14.28
2017-08-21T00:05:03.054Z,14.27
2017-08-21T00:06:00.352Z,14.27
2017-08-21T00:06:57.641Z,14.26
2017-08-21T00:07:54.865Z,14.25
2017-08-21T00:08:52.128Z,14.24
2017-08-21T00:09:49.380Z,14.25
2017-08-21T00:10:46.662Z,14.24
2017-08-21T00:11:43.921Z,14.23
2017-08-21T00:12:41.165Z,14.21
2017-08-21T00:13:38.445Z,14.22
2017-08-21T00:14:35.704Z,14.22
2017-08-21T00:15:32.952Z,14.20
2017-08-21T00:16:30.198Z,14.21
2017-08-21T00:17:27.426Z,14.19
2017-08-21T00:18:24.697Z,14.19
2017-08-21T00:19:21.967Z,14.18
2017-08-21T00:20:19.217Z,14.17
2017-08-21T00:21:16.461Z,14.17
2017-08-21T00:22:13.713Z,14.16
2017-08-21T00:23:10.958Z,14.15
2017-08-21T00:24:08.245Z,14.16
2017-08-21T00:25:05.485Z,14.14
2017-08-21T00:26:02.729Z,14.14
2017-08-21T00:26:59.958Z,14.14
2017-08-21T00:27:57.218Z,14.13
2017-08-21T00:28:54.449Z,14.13
2017-08-21T00:29:51.724Z,14.11
2017-08-21T00:30:48.987Z,14.11
2017-08-21T00:31:46.235Z,14.11
2017-08-21T00:32:43.475Z,14.11
2017-08-21T00:33:40.741Z,14.09
2017-08-21T00:34:38.002Z,14.08
2017-08-21T00:35:35.259Z,14.08
2017-08-21T00:36:32.488Z,14.09
2017-08-21T00:37:29.737Z,14.08
2017-08-21T00:38:26.966Z,14.07
2017-08-21T00:39:24.250Z,14.07
2017-08-21T00:40:21.495Z,14.06
2017-08-21T00:41:18.757Z,14.07
2017-08-21T00:42:16.002Z,14.06
2017-08-21T00:43:13.251Z,14.05
2017-08-21T00:44:10.505Z,14.05
2017-08-21T00:45:07.769Z,14.04
2017-08-21T00:46:04.995Z,14.03
2017-08-21T00:47:02.254Z,14.03
2017-08-21T00:47:59.489Z,14.02
2017-08-21T00:48:56.738Z,14.03
2017-08-21T00:49:53.990Z,14.02
2017-08-21T00:50:51.289Z,14.00
2017-08-21T00:51:48.550Z,14.01
2017-08-21T00:52:45.806Z,14.01
2017-08-21T00:53:43.072Z,13.99
2017-08-21T00:54:40.357Z,14.00
2017-08-21T00:55:37.605Z,13.99
2017-08-21T00:56:34.872Z,13.98
2017-08-21T00:57:32.128Z,13.97
2017-08-21T00:58:29.393Z,13.96
2017-08-21T00:59:26.634Z,13.97
2017-08-21T01:00:23.922Z,13.95
2017-08-21T01:01:23.799Z,13.95
2017-08-21T01:02:21.070Z,13.96
2017-08-21T01:03:18.333Z,13.94
2017-08-21T01:04:15.568Z,13.94
2017-08-21T01:05:12.854Z,13.95
2017-08-21T01:06:10.097Z,13.93
2017-08-21T01:07:07.354Z,13.93
2017-08-21T01:08:04.602Z,13.94
2017-08-21T01:09:01.869Z,13.92
2017-08-21T01:09:59.224Z,13.91
2017-08-21T01:10:56.480Z,13.90
2017-08-21T01:11:53.734Z,13.90
2017-08-21T01:12:51.033Z,13.91
2017-08-21T01:13:48.282Z,13.90
2017-08-21T01:14:45.574Z,13.89
2017-08-21T01:15:42.910Z,13.89
2017-08-21T01:16:40.189Z,13.89
2017-08-21T01:17:37.432Z,13.88
2017-08-21T01:18:34.689Z,13.88
2017-08-21T01:19:31.934Z,13.87
2017-08-21T01:20:29.225Z,13.87
2017-08-21T01:21:26.474Z,13.87
2017-08-21T01:22:23.762Z,13.86
2017-08-21T01:23:21.022Z,13.85
2017-08-21T01:24:18.285Z,13.85
2017-08-21T01:25:15.549Z,13.83
2017-08-21T01:26:12.806Z,13.85
2017-08-21T01:27:10.073Z,13.84
2017-08-21T01:28:07.344Z,13.84
2017-08-21T01:29:04.582Z,13.83
2017-08-21T01:30:01.841Z,13.83
2017-08-21T01:30:59.112Z,13.83
2017-08-21T01:31:56.370Z,13.82
2017-08-21T01:32:54.012Z,13.81
2017-08-21T01:33:51.286Z,13.80
2017-08-21T01:34:48.525Z,13.80
2017-08-21T01:35:45.809Z,13.81
2017-08-21T01:36:43.037Z,13.79
2017-08-21T01:37:40.309Z,13.79
2017-08-21T01:38:37.546Z,13.79
2017-08-21T01:39:34.810Z,13.78
2017-08-21T01:40:32.069Z,13.78
2017-08-21T01:41:29.806Z,13.79
2017-08-21T01:42:27.044Z,13.78
2017-08-21T01:43:24.312Z,13.78
2017-08-21T01:44:21.542Z,13.77
2017-08-21T01:45:18.800Z,13.77
2017-08-21T01:46:16.062Z,13.76
2017-08-21T01:47:13.342Z,13.76
2017-08-21T01:48:10.590Z,13.74
2017-08-21T01:49:07.941Z,13.75
2017-08-21T01:50:05.196Z,13.75
2017-08-21T01:51:02.477Z,13.74
2017-08-21T01:51:59.701Z,13.74
2017-08-21T01:52:56.957Z,13.74
2017-08-21T01:53:54.197Z,13.75
2017-08-21T01:54:51.442Z,13.73
2017-08-21T01:55:48.682Z,13.73
2017-08-21T01:56:45.964Z,13.72
2017-08-21T01:57:43.209Z,13.72
2017-08-21T01:58:40.469Z,13.72
2017-08-21T01:59:37.725Z,13.72
2017-08-21T02:00:34.994Z,13.72
2017-08-21T02:01:32.381Z,13.70
2017-08-21T02:02:29.633Z,13.72
2017-08-21T02:03:26.873Z,13.70
2017-08-21T02:04:24.136Z,13.71
2017-08-21T02:05:21.378Z,13.70
2017-08-21T02:06:18.700Z,13.69
2017-08-21T02:07:15.916Z,13.69
2017-08-21T02:08:13.180Z,13.68
2017-08-21T02:09:10.417Z,13.68
2017-08-21T02:10:07.685Z,13.67
2017-08-21T02:11:04.908Z,13.67
2017-08-21T02:12:02.186Z,13.67
2017-08-21T02:12:59.434Z,13.66
2017-08-21T02:13:56.685Z,13.66
2017-08-21T02:14:53.945Z,13.67
2017-08-21T02:15:51.201Z,13.65
2017-08-21T02:16:48.460Z,13.65
2017-08-21T02:17:45.706Z,13.65
2017-08-21T02:18:42.938Z,13.65
2017-08-21T02:19:40.189Z,13.63
2017-08-21T02:20:37.417Z,13.63
2017-08-21T02:21:34.661Z,13.62
2017-08-21T02:22:31.925Z,13.62
2017-08-21T02:23:29.183Z,13.62
2017-08-21T02:24:26.423Z,13.62
2017-08-21T02:25:23.707Z,13.62
2017-08-21T02:26:20.962Z,13.61
2017-08-21T02:27:18.226Z,13.61
2017-08-21T02:28:15.465Z,13.60
2017-08-21T02:29:12.728Z,13.61
2017-08-21T02:30:15.068Z,13.60
2017-08-21T02:31:12.330Z,13.60
2017-08-21T02:32:09.613Z,13.59
2017-08-21T02:33:06.869Z,13.59
2017-08-21T02:34:04.119Z,13.57
2017-08-21T02:35:01.373Z,13.58
2017-08-21T02:35:58.609Z,13.57
2017-08-21T02:36:55.909Z,13.57
2017-08-21T02:37:53.136Z,13.57
2017-08-21T02:38:50.405Z,13.57
2017-08-21T02:39:47.662Z,13.56
2017-08-21T02:40:45.016Z,13.56
2017-08-21T02:41:42.297Z,13.55
2017-08-21T02:42:39.563Z,13.55
2017-08-21T02:43:36.808Z,13.55
2017-08-21T02:44:34.149Z,13.56
2017-08-21T02:45:31.377Z,13.54
2017-08-21T02:46:28.626Z,13.55
2017-08-21T02:47:25.881Z,13.54
2017-08-21T02:48:23.142Z,13.55
2017-08-21T02:49:20.386Z,13.53
2017-08-21T02:50:17.641Z,13.54
2017-08-21T02:51:14.870Z,13.54
2017-08-21T02:52:12.153Z,13.52
2017-08-21T02:53:09.397Z,13.51
2017-08-21T02:54:06.754Z,13.53
2017-08-21T02:55:03.985Z,13.51
2017-08-21T02:56:01.228Z,13.52
2017-08-21T02:56:58.473Z,13.52
2017-08-21T02:57:55.748Z,13.51
2017-08-21T02:58:52.989Z,13.51
2017-08-21T02:59:50.353Z,13.50
2017-08-21T03:00:47.570Z,13.50
2017-08-21T03:01:44.825Z,13.50
2017-08-21T03:02:42.089Z,13.49
2017-08-21T03:03:39.349Z,13.49
2017-08-21T03:04:36.566Z,13.48
2017-08-21T03:05:33.825Z,13.49
2017-08-21T03:06:31.062Z,13.48
2017-08-21T03:07:28.328Z,13.48
2017-08-21T03:08:25.590Z,13.47
2017-08-21T03:09:22.952Z,13.48
2017-08-21T03:10:20.173Z,13.46
2017-08-21T03:11:17.435Z,13.47
2017-08-21T03:12:14.655Z,13.46
2017-08-21T03:13:11.931Z,13.47
2017-08-21T03:14:09.194Z,13.46
2017-08-21T03:15:06.450Z,13.46
2017-08-21T03:16:03.920Z,13.45
2017-08-21T03:17:01.196Z,13.45
2017-08-21T03:17:58.486Z,13.45
2017-08-21T03:18:55.746Z,13.46
2017-08-21T03:19:52.997Z,13.45
2017-08-21T03:20:50.495Z,13.45
2017-08-21T03:21:47.778Z,13.44
2017-08-21T03:22:45.037Z,13.44
2017-08-21T03:23:42.297Z,13.43
2017-08-21T03:24:39.557Z,13.42
2017-08-21T03:25:36.838Z,13.42
2017-08-21T03:26:34.111Z,13.42
2017-08-21T03:27:31.367Z,13.43
2017-08-21T03:28:28.665Z,13.41
2017-08-21T03:29:25.894Z,13.40
2017-08-21T03:30:23.154Z,13.41
2017-08-21T03:31:20.409Z,13.40
2017-08-21T03:32:17.682Z,13.39
2017-08-21T03:33:14.941Z,13.39
2017-08-21T03:34:12.239Z,13.40
2017-08-21T03:35:09.482Z,13.41
2017-08-21T03:36:07.086Z,13.41
2017-08-21T03:37:04.344Z,13.41
2017-08-21T03:38:01.616Z,13.40
2017-08-21T03:38:58.887Z,13.38
2017-08-21T03:39:56.148Z,13.39
2017-08-21T03:40:53.395Z,13.39
2017-08-21T03:41:50.705Z,13.39
2017-08-21T03:42:47.958Z,13.39
2017-08-21T03:43:45.245Z,13.38
2017-08-21T03:44:42.520Z,13.38
2017-08-21T03:45:39.785Z,13.39
2017-08-21T03:46:37.028Z,13.37
2017-08-21T03:47:34.312Z,13.36
2017-08-21T03:48:31.558Z,13.37
2017-08-21T03:49:28.858Z,13.36
2017-08-21T03:50:26.110Z,13.37
2017-08-21T03:51:23.389Z,13.36
2017-08-21T03:52:20.630Z,13.37
2017-08-21T03:53:17.889Z,13.37
2017-08-21T03:54:15.171Z,13.36
2017-08-21T03:55:12.554Z,13.36
2017-08-21T03:56:09.813Z,13.36
2017-08-21T03:57:07.106Z,13.35
2017-08-21T03:58:04.341Z,13.36
2017-08-21T03:59:01.641Z,13.34
2017-08-21T03:59:58.889Z,13.34
2017-08-21T04:00:56.156Z,13.34
2017-08-21T04:01:53.418Z,13.35
2017-08-21T04:02:50.677Z,13.35
2017-08-21T04:03:47.934Z,13.35
2017-08-21T04:04:45.208Z,13.34
2017-08-21T04:05:42.460Z,13.34
2017-08-21T04:06:39.721Z,13.33
2017-08-21T04:07:36.961Z,13.34
2017-08-21T04:08:34.231Z,13.34
2017-08-21T04:09:31.501Z,13.34
2017-08-21T04:10:28.760Z,13.33
2017-08-21T04:11:26.012Z,13.32
2017-08-21T04:12:23.286Z,13.33
2017-08-21T04:13:20.528Z,13.33
2017-08-21T04:14:17.804Z,13.33
2017-08-21T04:15:15.069Z,13.33
2017-08-21T04:16:12.347Z,13.33
2017-08-21T04:17:09.598Z,13.33
2017-08-21T04:18:06.862Z,13.33
2017-08-21T04:19:04.113Z,13.31
2017-08-21T04:20:01.423Z,13.32
2017-08-21T04:20:58.661Z,13.32
2017-08-21T04:21:55.921Z,13.33
2017-08-21T04:22:53.149Z,13.30
2017-08-21T04:23:50.421Z,13.32
2017-08-21T04:24:47.694Z,13.30
2017-08-21T04:25:45.010Z,13.31
2017-08-21T04:26:42.306Z,13.31
2017-08-21T04:27:39.672Z,13.30
2017-08-21T04:28:36.910Z,13.30
2017-08-21T04:29:34.170Z,13.31
2017-08-21T04:30:31.429Z,13.30
2017-08-21T04:31:28.681Z,13.30
2017-08-21T04:32:25.937Z,13.29
2017-08-21T04:33:23.423Z,13.29
2017-08-21T04:34:20.674Z,13.30
2017-08-21T04:35:18.002Z,13.30
2017-08-21T04:36:15.242Z,13.29
2017-08-21T04:37:12.498Z,13.29
2017-08-21T04:38:09.717Z,13.29
2017-08-21T04:39:06.986Z,13.29
2017-08-21T04:40:04.250Z,13.28
2017-08-21T04:41:01.518Z,13.28
2017-08-21T04:41:58.767Z,13.27
2017-08-21T04:42:56.033Z,13.28
2017-08-21T04:43:53.299Z,13.27
2017-08-21T04:44:50.578Z,13.28
2017-08-21T04:45:48.217Z,13.27
2017-08-21T04:46:45.478Z,13.27
2017-08-21T04:47:42.728Z,13.27
2017-08-21T04:48:39.978Z,13.26
2017-08-21T04:49:37.222Z,13.28
2017-08-21T04:50:34.498Z,13.26
2017-08-21T04:51:31.717Z,13.26
2017-08-21T04:52:28.965Z,13.26
2017-08-21T04:53:26.225Z,13.27
2017-08-21T04:54:23.480Z,13.27
2017-08-21T04:55:20.737Z,13.26
2017-08-21T04:56:18.018Z,13.26
2017-08-21T04:57:15.266Z,13.26
2017-08-21T04:58:12.598Z,13.25
2017-08-21T04:59:09.838Z,13.26
2017-08-21T05:00:07.092Z,13.26
2017-08-21T05:01:04.344Z,13.25
2017-08-21T05:02:01.593Z,13.24
2017-08-21T05:02:58.870Z,13.25
2017-08-21T05:03:56.111Z,13.25
2017-08-21T05:04:53.480Z,13.25
2017-08-21T05:05:50.792Z,13.23
2017-08-21T05:06:48.039Z,13.25
2017-08-21T05:07:45.305Z,13.24
2017-08-21T05:08:42.553Z,13.23
2017-08-21T05:09:39.817Z,13.23
2017-08-21T05:10:37.102Z,13.22
2017-08-21T05:11:34.380Z,13.22
2017-08-21T05:12:31.614Z,13.23
2017-08-21T05:13:28.877Z,13.24
2017-08-21T05:14:26.154Z,13.24
2017-08-21T05:15:23.421Z,13.23
2017-08-21T05:16:20.666Z,13.22
2017-08-21T05:17:17.937Z,13.23
2017-08-21T05:18:15.181Z,13.23
2017-08-21T05:19:12.437Z,13.23
2017-08-21T05:20:09.659Z,13.22
2017-08-21T05:21:06.939Z,13.22
2017-08-21T05:22:05.014Z,13.22
2017-08-21T05:23:02.282Z,13.22
2017-08-21T05:23:59.530Z,13.22
2017-08-21T05:24:56.818Z,13.22
2017-08-21T05:25:54.102Z,13.21
2017-08-21T05:26:51.379Z,13.21
2017-08-21T05:27:49.072Z,13.22
2017-08-21T05:28:46.333Z,13.21
2017-08-21T05:29:43.577Z,13.21
2017-08-21T05:30:40.829Z,13.22
2017-08-21T05:31:38.102Z,13.21
2017-08-21T05:32:35.357Z,13.21
2017-08-21T05:33:32.593Z,13.21
2017-08-21T05:34:29.858Z,13.21
2017-08-21T05:35:27.094Z,13.21
2017-08-21T05:36:24.396Z,13.21
2017-08-21T05:37:21.658Z,13.21
2017-08-21T05:38:18.918Z,13.22
2017-08-21T05:39:16.245Z,13.21
2017-08-21T05:40:13.511Z,13.20
2017-08-21T05:41:10.781Z,13.21
2017-08-21T05:42:08.086Z,13.21
2017-08-21T05:43:05.337Z,13.21
2017-08-21T05:44:02.593Z,13.20
2017-08-21T05:44:59.836Z,13.21
2017-08-21T05:45:57.097Z,13.22
2017-08-21T05:46:54.493Z,13.21
2017-08-21T05:47:51.761Z,13.21
2017-08-21T05:48:48.998Z,13.21
2017-08-21T05:49:46.394Z,13.23
2017-08-21T05:50:43.697Z,13.22
2017-08-21T05:51:41.222Z,13.23
2017-08-21T05:52:39.041Z,13.22
2017-08-21T05:53:36.346Z,13.23
2017-08-21T05:54:33.739Z,13.23
2017-08-21T05:55:31.457Z,13.23
2017-08-21T05:56:28.752Z,13.23
2017-08-21T05:57:26.976Z,13.23
2017-08-21T05:58:24.697Z,13.23
2017-08-21T05:59:22.041Z,13.23
2017-08-21T06:00:19.329Z,13.23
2017-08-21T06:01:16.624Z,13.23
2017-08-21T06:02:13.982Z,13.25
2017-08-21T06:03:11.257Z,13.24
2017-08-21T06:04:08.488Z,13.24
2017-08-21T06:05:05.782Z,13.25
2017-08-21T06:06:03.021Z,13.25
2017-08-21T06:07:00.277Z,13.25
2017-08-21T06:07:57.524Z,13.25
2017-08-21T06:08:55.302Z,13.25
2017-08-21T06:09:52.568Z,13.23
2017-08-21T06:10:49.840Z,13.25
2017-08-21T06:11:47.259Z,13.25
2017-08-21T06:12:44.837Z,13.25
2017-08-21T06:13:42.077Z,13.26
2017-08-21T06:14:39.337Z,13.26
2017-08-21T06:15:36.594Z,13.26
2017-08-21T06:16:33.925Z,13.26
2017-08-21T06:17:31.237Z,13.26
2017-08-21T06:18:28.509Z,13.26
2017-08-21T06:19:25.741Z,13.26
2017-08-21T06:20:23.001Z,13.26
2017-08-21T06:21:20.332Z,13.28
2017-08-21T06:22:17.737Z,13.28
2017-08-21T06:23:15.053Z,13.27
2017-08-21T06:24:12.309Z,13.28
2017-08-21T06:25:09.553Z,13.29
2017-08-21T06:26:06.898Z,13.29
2017-08-21T06:27:04.301Z,13.29
2017-08-21T06:28:01.843Z,13.30
2017-08-21T06:28:59.246Z,13.29
2017-08-21T06:29:56.683Z,13.30
2017-08-21T06:30:54.136Z,13.31
2017-08-21T06:31:51.500Z,13.31
2017-08-21T06:32:48.786Z,13.30
2017-08-21T06:33:46.041Z,13.31
2017-08-21T06:48:24.890Z,13.33
2017-08-21T06:49:22.138Z,13.34
2017-08-21T06:50:19.414Z,13.34
2017-08-21T06:51:17.581Z,13.35
2017-08-21T06:52:14.845Z,13.36
2017-08-21T06:53:12.118Z,13.37
2017-08-21T06:54:09.398Z,13.38
2017-08-21T06:55:06.638Z,13.38
2017-08-21T06:56:03.911Z,13.39
2017-08-21T06:57:01.165Z,13.41
2017-08-21T06:57:58.877Z,13.40
2017-08-21T06:58:56.174Z,13.43
2017-08-21T06:59:53.438Z,13.45
2017-08-21T07:00:50.701Z,13.46
2017-08-21T07:01:47.976Z,13.46
2017-08-21T07:02:45.221Z,13.46
2017-08-21T07:03:42.501Z,13.49
2017-08-21T07:04:39.757Z,13.48
2017-08-21T07:05:37.025Z,13.50
2017-08-21T07:06:34.324Z,13.50
2017-08-21T07:07:31.584Z,13.51
2017-08-21T07:08:28.821Z,13.52
2017-08-21T07:09:26.100Z,13.53
2017-08-21T07:10:23.339Z,13.55
2017-08-21T07:11:20.608Z,13.55
2017-08-21T07:12:17.870Z,13.56
2017-08-21T07:13:15.144Z,13.57
2017-08-21T07:14:12.437Z,13.57
2017-08-21T07:15:09.705Z,13.59
2017-08-21T07:16:06.985Z,13.59
2017-08-21T07:17:04.245Z,13.59
2017-08-21T07:18:01.504Z,13.61
2017-08-21T07:18:58.788Z,13.61
2017-08-21T07:19:56.049Z,13.63
2017-08-21T07:20:53.335Z,13.65
2017-08-21T07:21:50.581Z,13.66
2017-08-21T07:22:47.854Z,13.66
2017-08-21T07:23:45.120Z,13.68
2017-08-21T07:24:42.398Z,13.68
2017-08-21T07:25:39.660Z,13.69
2017-08-21T07:26:36.932Z,13.70
2017-08-21T07:27:34.189Z,13.72
2017-08-21T07:28:31.461Z,13.74
2017-08-21T07:29:28.737Z,13.73
2017-08-21T07:30:26.001Z,13.74
2017-08-21T07:31:23.337Z,13.75
2017-08-21T07:32:20.597Z,13.75
2017-08-21T07:33:17.858Z,13.78
2017-08-21T07:34:15.141Z,13.77
2017-08-21T07:35:12.454Z,13.79
2017-08-21T07:36:09.750Z,13.79
2017-08-21T07:37:06.993Z,13.80
2017-08-21T07:38:04.292Z,13.81
2017-08-21T07:39:01.553Z,13.83
2017-08-21T07:39:58.881Z,13.85
2017-08-21T07:40:56.182Z,13.84
2017-08-21T07:41:53.466Z,13.85
2017-08-21T07:42:50.717Z,13.88
2017-08-21T07:43:47.972Z,13.87
2017-08-21T07:44:45.262Z,13.89
2017-08-21T07:45:42.537Z,13.91
2017-08-21T07:46:39.865Z,13.91
2017-08-21T07:47:37.218Z,13.93
2017-08-21T07:48:34.476Z,13.95
2017-08-21T07:49:31.757Z,13.95
2017-08-21T07:50:29.025Z,13.97
2017-08-21T07:51:26.310Z,13.98
2017-08-21T07:52:23.571Z,13.98
2017-08-21T07:53:20.859Z,13.98
2017-08-21T07:54:18.130Z,14.01
2017-08-21T07:55:15.418Z,14.01
2017-08-21T07:56:12.706Z,14.04
2017-08-21T07:57:10.033Z,14.04
2017-08-21T07:58:07.289Z,14.05
2017-08-21T07:59:04.553Z,14.06
2017-08-21T08:00:01.844Z,14.07
2017-08-21T08:00:59.255Z,14.08
2017-08-21T08:01:56.560Z,14.10
2017-08-21T08:02:53.855Z,14.10
2017-08-21T08:03:51.207Z,14.11
2017-08-21T08:04:48.626Z,14.13
2017-08-21T08:05:45.906Z,14.14
2017-08-21T08:06:43.201Z,14.15
2017-08-21T08:07:40.449Z,14.16
2017-08-21T08:08:37.713Z,14.17
2017-08-21T08:09:34.956Z,14.16
2017-08-21T08:10:32.247Z,14.18
2017-08-21T08:11:29.510Z,14.20
2017-08-21T08:12:26.772Z,14.21
2017-08-21T08:13:24.037Z,14.20
2017-08-21T08:14:21.305Z,14.23
2017-08-21T08:15:18.593Z,14.23
2017-08-21T08:16:15.877Z,14.25
2017-08-21T08:17:13.142Z,14.25
2017-08-21T08:18:10.422Z,14.26
2017-08-21T08:19:07.700Z,14.27
2017-08-21T08:20:04.975Z,14.28
2017-08-21T08:21:02.367Z,14.29
2017-08-21T08:21:59.653Z,14.31
2017-08-21T08:22:56.894Z,14.31
2017-08-21T08:23:54.192Z,14.32
2017-08-21T08:24:51.461Z,14.34
2017-08-21T08:25:48.901Z,14.35
2017-08-21T08:26:46.246Z,14.34
2017-08-21T08:27:43.605Z,14.36
2017-08-21T08:28:41.060Z,14.39
2017-08-21T08:29:38.446Z,14.39
2017-08-21T08:30:35.759Z,14.40
2017-08-21T08:31:33.166Z,14.41
2017-08-21T08:32:30.611Z,14.44
2017-08-21T08:33:28.429Z,14.46
2017-08-21T08:34:26.093Z,14.47
2017-08-21T08:35:23.492Z,14.49
2017-08-21T08:36:21.002Z,14.50
2017-08-21T08:37:18.370Z,14.51
2017-08-21T08:38:15.696Z,14.52
2017-08-21T08:39:13.989Z,14.53
2017-08-21T08:40:11.443Z,14.55
2017-08-21T08:41:08.845Z,14.55
2017-08-21T08:42:06.110Z,14.57
2017-08-21T08:43:03.409Z,14.60
2017-08-21T08:44:00.686Z,14.61
2017-08-21T08:44:58.002Z,14.61
2017-08-21T08:45:55.285Z,14.63
2017-08-21T08:46:52.603Z,14.63
2017-08-21T08:47:49.895Z,14.65
2017-08-21T08:48:47.188Z,14.67
2017-08-21T08:49:44.453Z,14.66
2017-08-21T08:50:41.794Z,14.69
2017-08-21T08:51:39.070Z,14.70
2017-08-21T08:52:36.358Z,14.71
2017-08-21T08:53:33.621Z,14.72
2017-08-21T08:54:30.899Z,14.74
2017-08-21T08:55:28.312Z,14.74
2017-08-21T08:56:25.609Z,14.73
2017-08-21T08:57:22.886Z,14.77
2017-08-21T08:58:20.197Z,14.79
2017-08-21T08:59:17.462Z,14.80
2017-08-21T09:00:14.751Z,14.81
2017-08-21T09:01:12.012Z,14.82
2017-08-21T09:02:09.305Z,14.86
2017-08-21T09:03:06.587Z,14.86
2017-08-21T09:04:03.878Z,14.88
2017-08-21T09:05:01.154Z,14.89
2017-08-21T09:05:58.441Z,14.89
2017-08-21T09:06:55.730Z,14.91
2017-08-21T09:07:53.001Z,14.93
2017-08-21T09:08:50.265Z,14.94
2017-08-21T09:09:47.525Z,14.95
2017-08-21T09:10:44.883Z,14.95
2017-08-21T09:11:42.176Z,14.95
2017-08-21T09:12:39.430Z,14.98
2017-08-21T09:13:36.710Z,15.00
2017-08-21T09:14:33.974Z,15.00
2017-08-21T09:15:31.287Z,15.01
2017-08-21T09:16:28.548Z,15.03
2017-08-21T09:17:25.861Z,15.05
2017-08-21T09:18:23.126Z,15.07
2017-08-21T09:19:20.412Z,15.08
2017-08-21T09:20:17.678Z,15.10
2017-08-21T09:21:14.958Z,15.11
2017-08-21T09:22:12.254Z,15.13
2017-08-21T09:23:09.538Z,15.13
2017-08-21T09:24:06.830Z,15.15
2017-08-21T09:25:04.101Z,15.16
2017-08-21T09:26:01.367Z,15.17
2017-08-21T09:26:58.682Z,15.20
2017-08-21T09:27:55.925Z,15.20
2017-08-21T09:28:53.201Z,15.22
2017-08-21T09:29:50.472Z,15.25
2017-08-21T09:30:47.781Z,15.27
2017-08-21T09:31:45.067Z,15.28
2017-08-21T09:32:42.368Z,15.29
2017-08-21T09:33:39.637Z,15.31
2017-08-21T09:34:36.892Z,15.32
2017-08-21T09:35:34.154Z,15.34
2017-08-21T09:36:31.452Z,15.35
2017-08-21T09:37:28.724Z,15.36
2017-08-21T09:38:26.005Z,15.37
2017-08-21T09:39:23.279Z,15.40
2017-08-21T09:40:20.570Z,15.41
2017-08-21T09:41:17.855Z,15.42
2017-08-21T09:42:15.207Z,15.44
2017-08-21T09:43:12.503Z,15.46
2017-08-21T09:44:09.790Z,15.47
2017-08-21T09:45:07.076Z,15.50
2017-08-21T09:46:04.370Z,15.49
2017-08-21T09:47:01.634Z,15.53
2017-08-21T09:47:58.949Z,15.54
2017-08-21T09:48:56.210Z,15.55
2017-08-21T09:49:53.483Z,15.56
2017-08-21T09:50:50.749Z,15.58
2017-08-21T09:51:48.068Z,15.59
2017-08-21T09:52:45.413Z,15.60
2017-08-21T09:53:42.722Z,15.62
2017-08-21T09:54:39.984Z,15.64
2017-08-21T09:55:37.256Z,15.66
2017-08-21T09:56:34.526Z,15.66
2017-08-21T09:57:31.828Z,15.68
2017-08-21T09:58:29.137Z,15.69
2017-08-21T09:59:26.465Z,15.70
2017-08-21T10:00:23.764Z,15.74
2017-08-21T10:01:21.045Z,15.75
2017-08-21T10:02:18.326Z,15.77
2017-08-21T10:03:15.593Z,15.79
2017-08-21T10:04:12.885Z,15.79
2017-08-21T10:05:10.160Z,15.82
2017-08-21T10:06:07.450Z,15.84
2017-08-21T10:07:04.738Z,15.86
2017-08-21T10:08:02.050Z,15.87
2017-08-21T10:08:59.365Z,15.88
2017-08-21T10:09:56.627Z,15.91
2017-08-21T10:10:53.914Z,15.93
2017-08-21T10:11:51.193Z,15.95
2017-08-21T10:12:48.468Z,15.96
2017-08-21T10:13:45.709Z,15.97
2017-08-21T10:14:42.997Z,15.99
2017-08-21T10:15:40.319Z,16.01
2017-08-21T10:16:37.606Z,16.04
2017-08-21T10:17:34.857Z,16.05
2017-08-21T10:18:32.157Z,16.07
2017-08-21T10:19:29.465Z,16.10
2017-08-21T10:20:26.765Z,16.11
2017-08-21T10:21:24.012Z,16.12
2017-08-21T10:22:21.281Z,16.14
2017-08-21T10:23:18.559Z,16.16
2017-08-21T10:24:15.866Z,16.17
2017-08-21T10:25:13.124Z,16.20
2017-08-21T10:26:10.442Z,16.22
2017-08-21T10:27:07.708Z,16.25
2017-08-21T10:28:04.997Z,16.27
2017-08-21T10:29:02.261Z,16.27
2017-08-21T10:29:59.605Z,16.30
2017-08-21T10:30:56.902Z,16.32
2017-08-21T10:31:54.222Z,16.34
2017-08-21T10:32:51.497Z,16.36
2017-08-21T10:33:48.789Z,16.37
2017-08-21T10:34:46.083Z,16.39
2017-08-21T10:35:43.389Z,16.42
2017-08-21T10:37:13.534Z,16.42
2017-08-21T10:38:10.821Z,16.47
2017-08-21T10:39:08.140Z,16.49
2017-08-21T10:40:05.456Z,16.51
2017-08-21T10:41:02.728Z,16.52
2017-08-21T10:42:00.023Z,16.54
2017-08-21T10:42:57.328Z,16.55
2017-08-21T10:43:54.606Z,16.59
2017-08-21T10:44:52.217Z,16.60
2017-08-21T10:45:49.514Z,16.62
2017-08-21T10:46:46.821Z,16.63
2017-08-21T10:47:44.108Z,16.65
2017-08-21T10:48:41.406Z,16.67
2017-08-21T10:49:38.793Z,16.69
2017-08-21T10:50:36.070Z,16.70
2017-08-21T10:51:33.340Z,16.74
2017-08-21T10:52:30.617Z,16.76
2017-08-21T10:53:27.895Z,16.77
2017-08-21T10:54:25.209Z,16.78
2017-08-21T10:55:22.513Z,16.80
2017-08-21T10:56:19.803Z,16.84
2017-08-21T10:57:17.073Z,16.84
2017-08-21T10:58:14.334Z,16.86
2017-08-21T10:59:11.828Z,16.87
2017-08-21T11:00:09.133Z,16.90
2017-08-21T11:01:06.413Z,16.91
2017-08-21T11:02:03.709Z,16.93
2017-08-21T11:03:01.001Z,16.94
2017-08-21T11:03:58.313Z,16.95
2017-08-21T11:04:55.635Z,16.97
2017-08-21T11:05:52.930Z,16.99
2017-08-21T11:06:50.199Z,17.01
2017-08-21T11:07:48.388Z,17.02
2017-08-21T11:08:46.410Z,17.04
2017-08-21T11:09:43.688Z,17.06
2017-08-21T11:10:41.090Z,17.08
2017-08-21T11:11:38.389Z,17.11
2017-08-21T11:12:35.663Z,17.11
2017-08-21T11:13:32.965Z,17.14
2017-08-21T11:14:30.258Z,17.14
2017-08-21T11:15:27.673Z,17.16
2017-08-21T11:16:24.946Z,17.17
2017-08-21T11:17:22.221Z,17.19
2017-08-21T11:18:19.527Z,17.19
2017-08-21T11:19:16.814Z,17.21
2017-08-21T11:20:14.118Z,17.22
2017-08-21T11:21:11.435Z,17.24
2017-08-21T11:22:08.742Z,17.26
2017-08-21T11:23:06.045Z,17.27
2017-08-21T11:24:03.338Z,17.27
2017-08-21T11:25:00.630Z,17.29
2017-08-21T11:25:57.938Z,17.30
2017-08-21T11:26:55.660Z,17.31
2017-08-21T11:27:52.942Z,17.31
2017-08-21T11:28:50.301Z,17.34
2017-08-21T11:29:47.583Z,17.35
2017-08-21T11:30:44.915Z,17.35
2017-08-21T11:31:42.199Z,17.36
2017-08-21T11:32:39.489Z,17.37
2017-08-21T11:33:36.757Z,17.39
2017-08-21T11:34:34.055Z,17.41
2017-08-21T11:35:31.346Z,17.42
2017-08-21T11:36:28.644Z,17.43
2017-08-21T11:37:26.150Z,17.44
2017-08-21T11:38:23.631Z,17.45
2017-08-21T11:39:20.914Z,17.47
2017-08-21T11:40:18.388Z,17.48
2017-08-21T11:41:16.517Z,17.49
2017-08-21T11:42:13.917Z,17.50
2017-08-21T11:43:11.194Z,17.51
2017-08-21T11:44:08.489Z,17.52
2017-08-21T11:45:05.773Z,17.54
2017-08-21T11:46:03.081Z,17.55
2017-08-21T11:47:00.365Z,17.55
2017-08-21T11:47:57.687Z,17.58
2017-08-21T11:48:54.986Z,17.59
2017-08-21T11:49:52.283Z,17.60
2017-08-21T11:50:49.557Z,17.61
2017-08-21T11:51:46.922Z,17.64
2017-08-21T11:52:44.204Z,17.66
2017-08-21T11:53:41.495Z,17.66
2017-08-21T11:54:38.777Z,17.67
2017-08-21T11:55:36.053Z,17.67
2017-08-21T11:56:33.330Z,17.69
2017-08-21T11:57:30.610Z,17.70
2017-08-21T11:58:27.881Z,17.72
2017-08-21T11:59:25.180Z,17.73
2017-08-21T12:00:22.690Z,17.75
2017-08-21T12:01:19.990Z,17.75
2017-08-21T12:02:17.299Z,17.77
2017-08-21T12:03:14.677Z,17.78
2017-08-21T12:04:11.964Z,17.79
2017-08-21T12:05:09.271Z,17.81
2017-08-21T12:06:06.535Z,17.81
2017-08-21T12:07:03.843Z,17.85
2017-08-21T12:08:01.116Z,17.85
2017-08-21T12:08:58.396Z,17.85
2017-08-21T12:09:55.685Z,17.86
2017-08-21T12:10:52.998Z,17.88
2017-08-21T12:11:50.341Z,17.89
2017-08-21T12:12:47.629Z,17.89
2017-08-21T12:13:44.908Z,17.91
2017-08-21T12:14:42.189Z,17.94
2017-08-21T12:15:39.440Z,17.95
2017-08-21T12:16:36.722Z,17.96
2017-08-21T12:17:34.029Z,17.98
2017-08-21T12:18:31.330Z,18.00
2017-08-21T12:19:28.628Z,18.01
2017-08-21T12:20:25.918Z,18.04
2017-08-21T12:21:23.188Z,18.06
2017-08-21T12:22:20.491Z,18.08
2017-08-21T12:23:17.782Z,18.10
2017-08-21T12:24:15.050Z,18.10
2017-08-21T12:25:12.316Z,18.13
2017-08-21T12:26:09.632Z,18.14
2017-08-21T12:27:06.964Z,18.15
2017-08-21T12:28:04.272Z,18.16
2017-08-21T12:29:01.544Z,18.15
2017-08-21T12:29:58.917Z,18.18
2017-08-21T12:30:56.185Z,18.18
2017-08-21T12:31:53.465Z,18.20